sensor_id;sensor_type;location;lat;lon;timestamp;P1;durP1;ratioP1;P2;durP2;ratioP2
67715;SDS011;54508;43.238;25.306;2022-08-03T00:01:00;2.07;;;1.93;;
67715;SDS011;54508;43.238;25.306;2022-08-03T00:03:25;2.20;;;2.00;;
67715;SDS011;54508;43.238;25.306;2022-08-03T00:05:51;2.30;;;2.07;;
67715;SDS011;54508;43.238;25.306;2022-08-03T00:08:16;2.63;;;2.43;;
67715;SDS011;54508;43.238;25.306;2022-08-03T00:10:42;2.40;;;2.10;;
67715;SDS011;54508;43.238;25.306;2022-08-03T00:13:08;2.97;;;2.47;;
67715;SDS011;54508;43.238;25.306;2022-08-03T00:15:33;2.97;;;2.37;;
67715;SDS011;54508;43.238;25.306;2022-08-03T00:17:59;2.83;;;2.30;;
67715;SDS011;54508;43.238;25.306;2022-08-03T00:20:24;3.10;;;2.13;;
67715;SDS011;54508;43.238;25.306;2022-08-03T00:22:50;2.50;;;2.30;;
67715;SDS011;54508;43.238;25.306;2022-08-03T00:25:15;2.90;;;2.50;;
67715;SDS011;54508;43.238;25.306;2022-08-03T00:27:41;2.33;;;2.13;;
67715;SDS011;54508;43.238;25.306;2022-08-03T00:30:07;2.23;;;2.03;;
67715;SDS011;54508;43.238;25.306;2022-08-03T00:32:33;2.47;;;2.28;;
67715;SDS011;54508;43.238;25.306;2022-08-03T00:34:58;2.03;;;1.83;;
67715;SDS011;54508;43.238;25.306;2022-08-03T00:37:24;2.40;;;2.20;;
67715;SDS011;54508;43.238;25.306;2022-08-03T00:39:49;2.42;;;2.22;;
67715;SDS011;54508;43.238;25.306;2022-08-03T00:42:15;2.50;;;2.30;;
67715;SDS011;54508;43.238;25.306;2022-08-03T00:44:41;2.60;;;2.40;;
67715;SDS011;54508;43.238;25.306;2022-08-03T00:47:07;3.30;;;2.30;;
67715;SDS011;54508;43.238;25.306;2022-08-03T00:49:34;2.92;;;2.60;;
67715;SDS011;54508;43.238;25.306;2022-08-03T00:52:00;3.43;;;2.23;;
67715;SDS011;54508;43.238;25.306;2022-08-03T00:54:26;3.30;;;2.38;;
67715;SDS011;54508;43.238;25.306;2022-08-03T00:56:52;3.03;;;2.73;;
67715;SDS011;54508;43.238;25.306;2022-08-03T00:59:17;4.32;;;2.45;;
67715;SDS011;54508;43.238;25.306;2022-08-03T01:01:43;3.10;;;2.80;;
67715;SDS011;54508;43.238;25.306;2022-08-03T01:04:08;3.15;;;2.85;;
67715;SDS011;54508;43.238;25.306;2022-08-03T01:06:45;3.40;;;2.70;;
67715;SDS011;54508;43.238;25.306;2022-08-03T01:09:23;3.05;;;2.75;;
67715;SDS011;54508;43.238;25.306;2022-08-03T01:11:58;2.65;;;2.42;;
67715;SDS011;54508;43.238;25.306;2022-08-03T01:14:41;2.92;;;2.70;;
67715;SDS011;54508;43.238;25.306;2022-08-03T01:17:18;3.40;;;3.10;;
67715;SDS011;54508;43.238;25.306;2022-08-03T01:19:52;2.83;;;2.53;;
67715;SDS011;54508;43.238;25.306;2022-08-03T01:25:13;6.28;;;3.05;;
67715;SDS011;54508;43.238;25.306;2022-08-03T01:30:29;3.13;;;2.83;;
67715;SDS011;54508;43.238;25.306;2022-08-03T01:32:57;3.17;;;2.88;;
67715;SDS011;54508;43.238;25.306;2022-08-03T01:35:28;3.45;;;3.15;;
67715;SDS011;54508;43.238;25.306;2022-08-03T01:38:17;2.97;;;2.72;;
67715;SDS011;54508;43.238;25.306;2022-08-03T01:40:55;3.70;;;3.20;;
67715;SDS011;54508;43.238;25.306;2022-08-03T01:43:24;2.93;;;2.63;;
67715;SDS011;54508;43.238;25.306;2022-08-03T01:45:52;3.03;;;2.72;;
67715;SDS011;54508;43.238;25.306;2022-08-03T01:48:19;3.63;;;3.33;;
67715;SDS011;54508;43.238;25.306;2022-08-03T01:50:45;3.88;;;3.10;;
67715;SDS011;54508;43.238;25.306;2022-08-03T01:53:12;3.50;;;3.10;;
67715;SDS011;54508;43.238;25.306;2022-08-03T01:55:39;3.30;;;2.95;;
67715;SDS011;54508;43.238;25.306;2022-08-03T01:58:05;5.05;;;3.08;;
67715;SDS011;54508;43.238;25.306;2022-08-03T02:00:34;3.42;;;2.97;;
67715;SDS011;54508;43.238;25.306;2022-08-03T02:03:01;3.25;;;2.95;;
67715;SDS011;54508;43.238;25.306;2022-08-03T02:05:29;3.07;;;2.73;;
67715;SDS011;54508;43.238;25.306;2022-08-03T02:07:56;3.97;;;2.60;;
67715;SDS011;54508;43.238;25.306;2022-08-03T02:10:22;3.03;;;2.72;;
67715;SDS011;54508;43.238;25.306;2022-08-03T02:12:48;3.27;;;2.83;;
67715;SDS011;54508;43.238;25.306;2022-08-03T02:15:14;3.10;;;2.80;;
67715;SDS011;54508;43.238;25.306;2022-08-03T02:17:40;2.97;;;2.75;;
67715;SDS011;54508;43.238;25.306;2022-08-03T02:20:07;2.92;;;2.67;;
67715;SDS011;54508;43.238;25.306;2022-08-03T02:22:33;3.37;;;2.40;;
67715;SDS011;54508;43.238;25.306;2022-08-03T02:25:00;3.10;;;2.80;;
67715;SDS011;54508;43.238;25.306;2022-08-03T02:27:26;3.25;;;2.75;;
67715;SDS011;54508;43.238;25.306;2022-08-03T02:29:54;5.55;;;3.00;;
67715;SDS011;54508;43.238;25.306;2022-08-03T02:32:28;2.97;;;2.77;;
67715;SDS011;54508;43.238;25.306;2022-08-03T02:34:56;3.60;;;2.75;;
67715;SDS011;54508;43.238;25.306;2022-08-03T02:37:24;2.63;;;2.42;;
67715;SDS011;54508;43.238;25.306;2022-08-03T02:39:51;2.78;;;2.58;;
67715;SDS011;54508;43.238;25.306;2022-08-03T02:42:22;3.42;;;3.10;;
67715;SDS011;54508;43.238;25.306;2022-08-03T02:44:48;4.10;;;2.80;;
67715;SDS011;54508;43.238;25.306;2022-08-03T02:47:15;3.25;;;2.88;;
67715;SDS011;54508;43.238;25.306;2022-08-03T02:49:41;2.92;;;2.63;;
67715;SDS011;54508;43.238;25.306;2022-08-03T02:52:08;3.30;;;3.00;;
67715;SDS011;54508;43.238;25.306;2022-08-03T02:54:34;3.07;;;2.70;;
67715;SDS011;54508;43.238;25.306;2022-08-03T02:57:00;2.92;;;2.42;;
67715;SDS011;54508;43.238;25.306;2022-08-03T02:59:26;3.00;;;2.70;;
67715;SDS011;54508;43.238;25.306;2022-08-03T03:01:55;3.03;;;2.72;;
67715;SDS011;54508;43.238;25.306;2022-08-03T03:04:20;4.33;;;2.47;;
67715;SDS011;54508;43.238;25.306;2022-08-03T03:06:47;3.05;;;2.75;;
67715;SDS011;54508;43.238;25.306;2022-08-03T03:09:13;3.40;;;2.80;;
67715;SDS011;54508;43.238;25.306;2022-08-03T03:11:38;2.90;;;2.70;;
67715;SDS011;54508;43.238;25.306;2022-08-03T03:14:05;3.28;;;2.70;;
67715;SDS011;54508;43.238;25.306;2022-08-03T03:16:31;3.45;;;2.80;;
67715;SDS011;54508;43.238;25.306;2022-08-03T03:18:57;3.85;;;2.78;;
67715;SDS011;54508;43.238;25.306;2022-08-03T03:21:24;3.03;;;2.72;;
67715;SDS011;54508;43.238;25.306;2022-08-03T03:23:51;4.07;;;3.25;;
67715;SDS011;54508;43.238;25.306;2022-08-03T03:26:16;3.20;;;2.90;;
67715;SDS011;54508;43.238;25.306;2022-08-03T03:28:43;3.20;;;2.90;;
67715;SDS011;54508;43.238;25.306;2022-08-03T03:31:09;4.10;;;2.80;;
67715;SDS011;54508;43.238;25.306;2022-08-03T03:33:35;3.33;;;2.90;;
67715;SDS011;54508;43.238;25.306;2022-08-03T03:36:01;3.10;;;2.80;;
67715;SDS011;54508;43.238;25.306;2022-08-03T03:38:28;3.05;;;2.75;;
67715;SDS011;54508;43.238;25.306;2022-08-03T03:40:54;3.17;;;2.60;;
67715;SDS011;54508;43.238;25.306;2022-08-03T03:43:19;3.30;;;2.70;;
67715;SDS011;54508;43.238;25.306;2022-08-03T03:45:47;3.10;;;2.90;;
67715;SDS011;54508;43.238;25.306;2022-08-03T03:48:13;3.43;;;2.70;;
67715;SDS011;54508;43.238;25.306;2022-08-03T03:50:39;5.40;;;3.10;;
67715;SDS011;54508;43.238;25.306;2022-08-03T03:53:07;2.63;;;2.43;;
67715;SDS011;54508;43.238;25.306;2022-08-03T03:55:34;4.00;;;2.67;;
67715;SDS011;54508;43.238;25.306;2022-08-03T03:58:01;3.10;;;2.80;;
67715;SDS011;54508;43.238;25.306;2022-08-03T04:00:28;3.83;;;3.13;;
67715;SDS011;54508;43.238;25.306;2022-08-03T04:02:53;2.60;;;2.40;;
67715;SDS011;54508;43.238;25.306;2022-08-03T04:05:19;4.00;;;2.55;;
67715;SDS011;54508;43.238;25.306;2022-08-03T04:08:05;8.07;;;2.75;;
67715;SDS011;54508;43.238;25.306;2022-08-03T04:11:09;3.83;;;2.85;;
67715;SDS011;54508;43.238;25.306;2022-08-03T04:13:38;3.42;;;3.13;;
67715;SDS011;54508;43.238;25.306;2022-08-03T04:16:06;3.55;;;2.72;;
67715;SDS011;54508;43.238;25.306;2022-08-03T04:18:34;2.90;;;2.60;;
67715;SDS011;54508;43.238;25.306;2022-08-03T04:21:02;3.15;;;2.58;;
67715;SDS011;54508;43.238;25.306;2022-08-03T04:23:30;2.83;;;2.58;;
67715;SDS011;54508;43.238;25.306;2022-08-03T04:26:00;3.20;;;2.90;;
67715;SDS011;54508;43.238;25.306;2022-08-03T04:28:26;3.15;;;2.85;;
67715;SDS011;54508;43.238;25.306;2022-08-03T04:30:52;3.13;;;2.80;;
67715;SDS011;54508;43.238;25.306;2022-08-03T04:33:19;3.88;;;2.70;;
67715;SDS011;54508;43.238;25.306;2022-08-03T04:35:45;2.83;;;2.53;;
67715;SDS011;54508;43.238;25.306;2022-08-03T04:38:12;3.65;;;2.60;;
67715;SDS011;54508;43.238;25.306;2022-08-03T04:40:39;3.65;;;3.25;;
67715;SDS011;54508;43.238;25.306;2022-08-03T04:43:06;3.03;;;2.50;;
67715;SDS011;54508;43.238;25.306;2022-08-03T04:45:33;6.45;;;2.80;;
67715;SDS011;54508;43.238;25.306;2022-08-03T04:47:59;3.67;;;3.03;;
67715;SDS011;54508;43.238;25.306;2022-08-03T04:50:25;3.47;;;2.77;;
67715;SDS011;54508;43.238;25.306;2022-08-03T04:52:52;4.07;;;2.67;;
67715;SDS011;54508;43.238;25.306;2022-08-03T04:55:27;3.20;;;2.78;;
67715;SDS011;54508;43.238;25.306;2022-08-03T04:57:53;3.90;;;2.60;;
67715;SDS011;54508;43.238;25.306;2022-08-03T05:00:18;3.43;;;2.73;;
67715;SDS011;54508;43.238;25.306;2022-08-03T05:02:44;3.15;;;2.80;;
67715;SDS011;54508;43.238;25.306;2022-08-03T05:05:10;3.80;;;2.70;;
67715;SDS011;54508;43.238;25.306;2022-08-03T05:07:36;3.17;;;2.88;;
67715;SDS011;54508;43.238;25.306;2022-08-03T05:10:05;3.80;;;2.97;;
67715;SDS011;54508;43.238;25.306;2022-08-03T05:12:32;2.80;;;2.53;;
67715;SDS011;54508;43.238;25.306;2022-08-03T05:14:57;2.70;;;2.50;;
67715;SDS011;54508;43.238;25.306;2022-08-03T05:17:23;3.83;;;3.20;;
67715;SDS011;54508;43.238;25.306;2022-08-03T05:19:48;8.23;;;3.53;;
67715;SDS011;54508;43.238;25.306;2022-08-03T05:22:13;6.13;;;3.07;;
67715;SDS011;54508;43.238;25.306;2022-08-03T05:24:39;4.83;;;3.50;;
67715;SDS011;54508;43.238;25.306;2022-08-03T05:27:04;8.65;;;3.35;;
67715;SDS011;54508;43.238;25.306;2022-08-03T05:29:30;6.90;;;3.93;;
67715;SDS011;54508;43.238;25.306;2022-08-03T05:31:55;7.10;;;5.13;;
67715;SDS011;54508;43.238;25.306;2022-08-03T05:34:21;3.77;;;3.40;;
67715;SDS011;54508;43.238;25.306;2022-08-03T05:36:46;5.18;;;3.53;;
67715;SDS011;54508;43.238;25.306;2022-08-03T05:39:12;226.38;;;19.88;;
67715;SDS011;54508;43.238;25.306;2022-08-03T05:41:37;91.43;;;14.13;;
67715;SDS011;54508;43.238;25.306;2022-08-03T05:44:03;32.87;;;6.30;;
67715;SDS011;54508;43.238;25.306;2022-08-03T05:46:28;21.30;;;6.03;;
67715;SDS011;54508;43.238;25.306;2022-08-03T05:48:54;11.27;;;4.70;;
67715;SDS011;54508;43.238;25.306;2022-08-03T05:51:19;8.77;;;4.00;;
67715;SDS011;54508;43.238;25.306;2022-08-03T05:53:45;12.80;;;3.92;;
67715;SDS011;54508;43.238;25.306;2022-08-03T05:56:10;10.97;;;4.00;;
67715;SDS011;54508;43.238;25.306;2022-08-03T05:58:36;6.30;;;3.40;;
67715;SDS011;54508;43.238;25.306;2022-08-03T06:01:02;6.07;;;3.10;;
67715;SDS011;54508;43.238;25.306;2022-08-03T06:03:27;5.20;;;3.57;;
67715;SDS011;54508;43.238;25.306;2022-08-03T06:05:53;6.60;;;3.80;;
67715;SDS011;54508;43.238;25.306;2022-08-03T06:08:22;17.40;;;4.47;;
67715;SDS011;54508;43.238;25.306;2022-08-03T06:10:48;7.00;;;3.72;;
67715;SDS011;54508;43.238;25.306;2022-08-03T06:13:14;8.48;;;3.97;;
67715;SDS011;54508;43.238;25.306;2022-08-03T06:15:39;9.13;;;3.67;;
67715;SDS011;54508;43.238;25.306;2022-08-03T06:18:05;7.95;;;4.07;;
67715;SDS011;54508;43.238;25.306;2022-08-03T06:20:32;9.95;;;3.70;;
67715;SDS011;54508;43.238;25.306;2022-08-03T06:22:57;7.38;;;3.80;;
67715;SDS011;54508;43.238;25.306;2022-08-03T06:25:24;4.93;;;3.65;;
67715;SDS011;54508;43.238;25.306;2022-08-03T06:27:50;8.20;;;4.65;;
67715;SDS011;54508;43.238;25.306;2022-08-03T06:30:16;6.83;;;5.67;;
67715;SDS011;54508;43.238;25.306;2022-08-03T06:32:43;10.27;;;7.65;;
67715;SDS011;54508;43.238;25.306;2022-08-03T06:35:08;9.80;;;6.43;;
67715;SDS011;54508;43.238;25.306;2022-08-03T06:37:42;10.55;;;5.53;;
67715;SDS011;54508;43.238;25.306;2022-08-03T06:40:12;10.02;;;4.72;;
67715;SDS011;54508;43.238;25.306;2022-08-03T06:42:38;8.90;;;4.00;;
67715;SDS011;54508;43.238;25.306;2022-08-03T06:45:05;5.80;;;3.80;;
67715;SDS011;54508;43.238;25.306;2022-08-03T06:47:32;10.15;;;3.38;;
67715;SDS011;54508;43.238;25.306;2022-08-03T06:49:58;11.25;;;4.32;;
67715;SDS011;54508;43.238;25.306;2022-08-03T06:52:23;19.87;;;6.43;;
67715;SDS011;54508;43.238;25.306;2022-08-03T06:54:49;11.57;;;5.73;;
67715;SDS011;54508;43.238;25.306;2022-08-03T06:57:14;9.53;;;5.40;;
67715;SDS011;54508;43.238;25.306;2022-08-03T06:59:40;11.80;;;7.72;;
67715;SDS011;54508;43.238;25.306;2022-08-03T07:02:06;15.52;;;10.23;;
67715;SDS011;54508;43.238;25.306;2022-08-03T07:04:33;12.35;;;5.90;;
67715;SDS011;54508;43.238;25.306;2022-08-03T07:06:59;7.70;;;5.30;;
67715;SDS011;54508;43.238;25.306;2022-08-03T07:09:24;5.47;;;4.30;;
67715;SDS011;54508;43.238;25.306;2022-08-03T07:11:50;8.80;;;4.18;;
67715;SDS011;54508;43.238;25.306;2022-08-03T07:14:16;14.10;;;4.00;;
67715;SDS011;54508;43.238;25.306;2022-08-03T07:16:42;10.00;;;3.77;;
67715;SDS011;54508;43.238;25.306;2022-08-03T07:19:07;11.40;;;4.80;;
67715;SDS011;54508;43.238;25.306;2022-08-03T07:21:32;15.40;;;4.07;;
67715;SDS011;54508;43.238;25.306;2022-08-03T07:23:58;6.90;;;4.47;;
67715;SDS011;54508;43.238;25.306;2022-08-03T07:26:23;12.77;;;4.03;;
67715;SDS011;54508;43.238;25.306;2022-08-03T07:28:49;7.77;;;3.87;;
67715;SDS011;54508;43.238;25.306;2022-08-03T07:31:14;4.63;;;3.22;;
67715;SDS011;54508;43.238;25.306;2022-08-03T07:33:40;9.40;;;2.93;;
67715;SDS011;54508;43.238;25.306;2022-08-03T07:36:05;6.40;;;2.40;;
67715;SDS011;54508;43.238;25.306;2022-08-03T07:38:31;8.00;;;3.37;;
67715;SDS011;54508;43.238;25.306;2022-08-03T07:40:56;8.45;;;3.83;;
67715;SDS011;54508;43.238;25.306;2022-08-03T07:43:22;6.97;;;3.30;;
67715;SDS011;54508;43.238;25.306;2022-08-03T07:45:48;15.00;;;3.45;;
67715;SDS011;54508;43.238;25.306;2022-08-03T07:48:13;4.93;;;2.80;;
67715;SDS011;54508;43.238;25.306;2022-08-03T07:50:39;7.63;;;2.70;;
67715;SDS011;54508;43.238;25.306;2022-08-03T07:53:04;4.13;;;2.85;;
67715;SDS011;54508;43.238;25.306;2022-08-03T07:55:30;6.20;;;3.10;;
67715;SDS011;54508;43.238;25.306;2022-08-03T07:58:02;5.43;;;2.97;;
67715;SDS011;54508;43.238;25.306;2022-08-03T08:00:29;8.43;;;2.85;;
67715;SDS011;54508;43.238;25.306;2022-08-03T08:02:55;3.90;;;2.73;;
67715;SDS011;54508;43.238;25.306;2022-08-03T08:05:20;7.53;;;3.60;;
67715;SDS011;54508;43.238;25.306;2022-08-03T08:07:46;9.70;;;4.17;;
67715;SDS011;54508;43.238;25.306;2022-08-03T08:10:11;5.60;;;3.20;;
67715;SDS011;54508;43.238;25.306;2022-08-03T08:12:37;3.15;;;2.63;;
67715;SDS011;54508;43.238;25.306;2022-08-03T08:15:03;5.55;;;2.60;;
67715;SDS011;54508;43.238;25.306;2022-08-03T08:17:29;3.08;;;2.72;;
67715;SDS011;54508;43.238;25.306;2022-08-03T08:19:55;7.27;;;2.70;;
67715;SDS011;54508;43.238;25.306;2022-08-03T08:22:20;5.53;;;2.42;;
67715;SDS011;54508;43.238;25.306;2022-08-03T08:24:46;2.95;;;2.60;;
67715;SDS011;54508;43.238;25.306;2022-08-03T08:27:13;9.32;;;3.60;;
67715;SDS011;54508;43.238;25.306;2022-08-03T08:29:39;3.45;;;2.40;;
67715;SDS011;54508;43.238;25.306;2022-08-03T08:32:05;7.13;;;2.70;;
67715;SDS011;54508;43.238;25.306;2022-08-03T08:34:30;3.07;;;2.70;;
67715;SDS011;54508;43.238;25.306;2022-08-03T08:36:56;5.15;;;2.80;;
67715;SDS011;54508;43.238;25.306;2022-08-03T08:39:22;6.05;;;3.20;;
67715;SDS011;54508;43.238;25.306;2022-08-03T08:41:51;2.92;;;2.67;;
67715;SDS011;54508;43.238;25.306;2022-08-03T08:44:16;4.83;;;2.90;;
67715;SDS011;54508;43.238;25.306;2022-08-03T08:46:42;7.85;;;3.60;;
67715;SDS011;54508;43.238;25.306;2022-08-03T08:49:08;6.27;;;3.23;;
67715;SDS011;54508;43.238;25.306;2022-08-03T08:51:34;4.15;;;2.65;;
67715;SDS011;54508;43.238;25.306;2022-08-03T08:54:01;7.07;;;2.80;;
67715;SDS011;54508;43.238;25.306;2022-08-03T08:56:28;3.50;;;2.85;;
67715;SDS011;54508;43.238;25.306;2022-08-03T08:58:58;5.30;;;2.75;;
67715;SDS011;54508;43.238;25.306;2022-08-03T09:01:25;4.28;;;2.80;;
67715;SDS011;54508;43.238;25.306;2022-08-03T09:03:50;6.72;;;2.80;;
67715;SDS011;54508;43.238;25.306;2022-08-03T09:06:18;5.43;;;2.55;;
67715;SDS011;54508;43.238;25.306;2022-08-03T09:08:46;5.13;;;3.28;;
67715;SDS011;54508;43.238;25.306;2022-08-03T09:11:12;4.93;;;2.20;;
67715;SDS011;54508;43.238;25.306;2022-08-03T09:13:37;3.60;;;2.70;;
67715;SDS011;54508;43.238;25.306;2022-08-03T09:16:10;3.10;;;2.80;;
67715;SDS011;54508;43.238;25.306;2022-08-03T09:18:37;4.88;;;3.72;;
67715;SDS011;54508;43.238;25.306;2022-08-03T09:21:13;8.07;;;4.47;;
67715;SDS011;54508;43.238;25.306;2022-08-03T09:23:44;5.07;;;4.18;;
67715;SDS011;54508;43.238;25.306;2022-08-03T09:26:23;6.38;;;4.65;;
67715;SDS011;54508;43.238;25.306;2022-08-03T09:28:54;5.37;;;4.43;;
67715;SDS011;54508;43.238;25.306;2022-08-03T09:31:28;5.32;;;4.68;;
67715;SDS011;54508;43.238;25.306;2022-08-03T09:33:54;6.05;;;4.32;;
67715;SDS011;54508;43.238;25.306;2022-08-03T09:36:37;6.57;;;4.25;;
67715;SDS011;54508;43.238;25.306;2022-08-03T09:39:03;4.63;;;4.07;;
67715;SDS011;54508;43.238;25.306;2022-08-03T09:41:31;5.13;;;4.63;;
67715;SDS011;54508;43.238;25.306;2022-08-03T09:43:57;5.35;;;4.10;;
67715;SDS011;54508;43.238;25.306;2022-08-03T09:46:23;4.85;;;4.10;;
67715;SDS011;54508;43.238;25.306;2022-08-03T09:48:48;4.37;;;3.80;;
67715;SDS011;54508;43.238;25.306;2022-08-03T09:51:14;6.97;;;3.70;;
67715;SDS011;54508;43.238;25.306;2022-08-03T09:53:45;3.40;;;3.05;;
67715;SDS011;54508;43.238;25.306;2022-08-03T09:56:11;4.07;;;3.33;;
67715;SDS011;54508;43.238;25.306;2022-08-03T09:58:45;6.40;;;3.50;;
67715;SDS011;54508;43.238;25.306;2022-08-03T10:01:11;3.25;;;2.95;;
67715;SDS011;54508;43.238;25.306;2022-08-03T10:03:38;4.57;;;3.20;;
67715;SDS011;54508;43.238;25.306;2022-08-03T10:06:15;4.32;;;3.20;;
67715;SDS011;54508;43.238;25.306;2022-08-03T10:11:48;3.80;;;2.80;;
67715;SDS011;54508;43.238;25.306;2022-08-03T10:14:14;4.00;;;3.17;;
67715;SDS011;54508;43.238;25.306;2022-08-03T10:16:43;4.07;;;2.90;;
67715;SDS011;54508;43.238;25.306;2022-08-03T10:19:09;4.63;;;2.92;;
67715;SDS011;54508;43.238;25.306;2022-08-03T10:21:35;6.90;;;2.40;;
67715;SDS011;54508;43.238;25.306;2022-08-03T10:24:06;2.83;;;2.40;;
67715;SDS011;54508;43.238;25.306;2022-08-03T10:26:34;3.38;;;2.72;;
67715;SDS011;54508;43.238;25.306;2022-08-03T10:29:21;8.77;;;2.20;;
67715;SDS011;54508;43.238;25.306;2022-08-03T10:31:49;2.25;;;2.05;;
67715;SDS011;54508;43.238;25.306;2022-08-03T10:34:23;3.30;;;2.60;;
67715;SDS011;54508;43.238;25.306;2022-08-03T10:36:50;3.58;;;2.78;;
67715;SDS011;54508;43.238;25.306;2022-08-03T10:39:21;3.42;;;2.58;;
67715;SDS011;54508;43.238;25.306;2022-08-03T10:41:48;3.33;;;2.50;;
67715;SDS011;54508;43.238;25.306;2022-08-03T10:44:18;3.17;;;2.70;;
67715;SDS011;54508;43.238;25.306;2022-08-03T10:46:45;2.95;;;2.65;;
67715;SDS011;54508;43.238;25.306;2022-08-03T10:49:16;3.55;;;2.08;;
67715;SDS011;54508;43.238;25.306;2022-08-03T10:51:43;3.10;;;2.40;;
67715;SDS011;54508;43.238;25.306;2022-08-03T10:57:41;3.25;;;2.03;;
67715;SDS011;54508;43.238;25.306;2022-08-03T11:00:11;2.83;;;2.10;;
67715;SDS011;54508;43.238;25.306;2022-08-03T11:05:27;1.90;;;1.80;;
67715;SDS011;54508;43.238;25.306;2022-08-03T11:10:45;3.53;;;1.92;;
67715;SDS011;54508;43.238;25.306;2022-08-03T11:13:15;2.47;;;2.10;;
67715;SDS011;54508;43.238;25.306;2022-08-03T11:15:43;2.35;;;1.80;;
67715;SDS011;54508;43.238;25.306;2022-08-03T11:18:10;3.47;;;1.77;;
67715;SDS011;54508;43.238;25.306;2022-08-03T11:20:44;2.37;;;1.67;;
67715;SDS011;54508;43.238;25.306;2022-08-03T11:23:12;2.05;;;1.85;;
67715;SDS011;54508;43.238;25.306;2022-08-03T11:28:33;2.00;;;1.70;;
67715;SDS011;54508;43.238;25.306;2022-08-03T11:34:02;1.92;;;1.75;;
67715;SDS011;54508;43.238;25.306;2022-08-03T11:36:29;1.60;;;1.50;;
67715;SDS011;54508;43.238;25.306;2022-08-03T11:39:13;1.97;;;1.70;;
67715;SDS011;54508;43.238;25.306;2022-08-03T11:41:40;2.95;;;1.60;;
67715;SDS011;54508;43.238;25.306;2022-08-03T11:44:05;1.77;;;1.53;;
67715;SDS011;54508;43.238;25.306;2022-08-03T11:46:36;1.92;;;1.50;;
67715;SDS011;54508;43.238;25.306;2022-08-03T11:49:05;1.73;;;1.60;;
67715;SDS011;54508;43.238;25.306;2022-08-03T11:51:33;1.83;;;1.70;;
67715;SDS011;54508;43.238;25.306;2022-08-03T11:54:04;1.67;;;1.48;;
67715;SDS011;54508;43.238;25.306;2022-08-03T11:56:46;2.47;;;1.50;;
67715;SDS011;54508;43.238;25.306;2022-08-03T11:59:12;2.35;;;2.15;;
67715;SDS011;54508;43.238;25.306;2022-08-03T12:01:38;2.25;;;2.05;;
67715;SDS011;54508;43.238;25.306;2022-08-03T12:04:05;1.83;;;1.70;;
67715;SDS011;54508;43.238;25.306;2022-08-03T12:06:31;3.30;;;1.88;;
67715;SDS011;54508;43.238;25.306;2022-08-03T12:09:16;2.53;;;2.20;;
67715;SDS011;54508;43.238;25.306;2022-08-03T12:11:42;1.97;;;1.70;;
67715;SDS011;54508;43.238;25.306;2022-08-03T12:14:08;3.10;;;2.13;;
67715;SDS011;54508;43.238;25.306;2022-08-03T12:16:40;2.85;;;2.10;;
67715;SDS011;54508;43.238;25.306;2022-08-03T12:19:11;4.13;;;1.90;;
67715;SDS011;54508;43.238;25.306;2022-08-03T12:21:44;3.28;;;1.70;;
67715;SDS011;54508;43.238;25.306;2022-08-03T12:24:12;2.40;;;2.20;;
67715;SDS011;54508;43.238;25.306;2022-08-03T12:29:19;3.03;;;2.72;;
67715;SDS011;54508;43.238;25.306;2022-08-03T12:31:45;3.53;;;3.22;;
67715;SDS011;54508;43.238;25.306;2022-08-03T12:34:11;3.85;;;3.35;;
67715;SDS011;54508;43.238;25.306;2022-08-03T12:36:37;6.65;;;3.70;;
67715;SDS011;54508;43.238;25.306;2022-08-03T12:39:23;4.72;;;3.60;;
67715;SDS011;54508;43.238;25.306;2022-08-03T12:41:52;4.20;;;3.80;;
67715;SDS011;54508;43.238;25.306;2022-08-03T12:44:27;5.00;;;3.13;;
67715;SDS011;54508;43.238;25.306;2022-08-03T12:46:57;4.03;;;3.50;;
67715;SDS011;54508;43.238;25.306;2022-08-03T12:49:23;3.97;;;3.50;;
67715;SDS011;54508;43.238;25.306;2022-08-03T12:54:15;3.90;;;3.13;;
67715;SDS011;54508;43.238;25.306;2022-08-03T12:59:27;4.13;;;3.73;;
67715;SDS011;54508;43.238;25.306;2022-08-03T13:01:57;4.05;;;3.65;;
67715;SDS011;54508;43.238;25.306;2022-08-03T13:04:33;4.82;;;4.03;;
67715;SDS011;54508;43.238;25.306;2022-08-03T13:07:03;4.47;;;4.05;;
67715;SDS011;54508;43.238;25.306;2022-08-03T13:09:39;7.32;;;4.40;;
67715;SDS011;54508;43.238;25.306;2022-08-03T13:12:13;4.37;;;3.97;;
67715;SDS011;54508;43.238;25.306;2022-08-03T13:14:40;5.20;;;3.53;;
67715;SDS011;54508;43.238;25.306;2022-08-03T13:17:09;4.00;;;3.38;;
67715;SDS011;54508;43.238;25.306;2022-08-03T13:19:35;4.57;;;3.25;;
67715;SDS011;54508;43.238;25.306;2022-08-03T13:22:11;5.55;;;3.33;;
67715;SDS011;54508;43.238;25.306;2022-08-03T13:24:39;3.53;;;2.80;;
67715;SDS011;54508;43.238;25.306;2022-08-03T13:27:04;4.65;;;3.20;;
67715;SDS011;54508;43.238;25.306;2022-08-03T13:29:31;3.25;;;2.75;;
67715;SDS011;54508;43.238;25.306;2022-08-03T13:31:58;3.28;;;2.60;;
67715;SDS011;54508;43.238;25.306;2022-08-03T13:34:24;3.17;;;2.33;;
67715;SDS011;54508;43.238;25.306;2022-08-03T13:36:50;7.93;;;5.07;;
67715;SDS011;54508;43.238;25.306;2022-08-03T13:39:15;5.20;;;4.70;;
67715;SDS011;54508;43.238;25.306;2022-08-03T13:41:41;5.83;;;4.63;;
67715;SDS011;54508;43.238;25.306;2022-08-03T13:44:06;5.00;;;3.77;;
67715;SDS011;54508;43.238;25.306;2022-08-03T13:46:32;5.77;;;3.93;;
67715;SDS011;54508;43.238;25.306;2022-08-03T13:48:58;4.90;;;3.60;;
67715;SDS011;54508;43.238;25.306;2022-08-03T13:51:23;3.73;;;3.33;;
67715;SDS011;54508;43.238;25.306;2022-08-03T13:53:50;3.60;;;3.05;;
67715;SDS011;54508;43.238;25.306;2022-08-03T13:56:16;3.40;;;3.10;;
67715;SDS011;54508;43.238;25.306;2022-08-03T13:58:41;5.13;;;2.87;;
67715;SDS011;54508;43.238;25.306;2022-08-03T14:01:07;4.43;;;3.00;;
67715;SDS011;54508;43.238;25.306;2022-08-03T14:03:32;8.50;;;3.10;;
67715;SDS011;54508;43.238;25.306;2022-08-03T14:05:58;11.80;;;3.10;;
67715;SDS011;54508;43.238;25.306;2022-08-03T14:08:23;9.50;;;3.93;;
67715;SDS011;54508;43.238;25.306;2022-08-03T14:10:49;10.63;;;3.70;;
67715;SDS011;54508;43.238;25.306;2022-08-03T14:13:14;5.80;;;2.93;;
67715;SDS011;54508;43.238;25.306;2022-08-03T14:15:40;5.27;;;2.73;;
67715;SDS011;54508;43.238;25.306;2022-08-03T14:18:07;4.65;;;2.70;;
67715;SDS011;54508;43.238;25.306;2022-08-03T14:20:33;4.18;;;2.45;;
67715;SDS011;54508;43.238;25.306;2022-08-03T14:22:58;5.07;;;2.70;;
67715;SDS011;54508;43.238;25.306;2022-08-03T14:25:23;4.90;;;2.10;;
67715;SDS011;54508;43.238;25.306;2022-08-03T14:27:49;2.57;;;2.30;;
67715;SDS011;54508;43.238;25.306;2022-08-03T14:30:14;4.68;;;2.40;;
67715;SDS011;54508;43.238;25.306;2022-08-03T14:32:40;4.07;;;2.30;;
67715;SDS011;54508;43.238;25.306;2022-08-03T14:35:06;4.05;;;2.30;;
67715;SDS011;54508;43.238;25.306;2022-08-03T14:37:32;12.00;;;5.28;;
67715;SDS011;54508;43.238;25.306;2022-08-03T14:39:58;11.57;;;6.47;;
67715;SDS011;54508;43.238;25.306;2022-08-03T14:42:24;6.73;;;6.03;;
67715;SDS011;54508;43.238;25.306;2022-08-03T14:44:49;10.55;;;5.72;;
67715;SDS011;54508;43.238;25.306;2022-08-03T14:47:15;11.83;;;6.00;;
67715;SDS011;54508;43.238;25.306;2022-08-03T14:49:40;7.47;;;5.23;;
67715;SDS011;54508;43.238;25.306;2022-08-03T14:52:06;5.55;;;5.03;;
67715;SDS011;54508;43.238;25.306;2022-08-03T14:54:32;6.10;;;5.23;;
67715;SDS011;54508;43.238;25.306;2022-08-03T14:56:57;5.60;;;4.97;;
67715;SDS011;54508;43.238;25.306;2022-08-03T14:59:24;8.67;;;4.77;;
67715;SDS011;54508;43.238;25.306;2022-08-03T15:01:50;5.38;;;4.85;;
67715;SDS011;54508;43.238;25.306;2022-08-03T15:04:15;4.95;;;4.45;;
67715;SDS011;54508;43.238;25.306;2022-08-03T15:06:41;4.80;;;4.30;;